Time;durP1;ratioP1;P1;durP2;ratioP2;P2;SDS_P1;SDS_P2;PMS_P1;PMS_P2;Temp;Humidity;BMP_temperature;BMP_pressure;BME280_temperature;BME280_humidity;BME280_pressure;Samples;Min_cycle;Max_cycle;Signal;HPM_P1;HPM_P2
2021/12/13 00:01:07;;;;;;;0.23;0.17;;;;;;;11.04;100.00;100995.72;2618448;54;20176;-62
2021/12/13 00:03:46;;;;;;;0.83;0.30;;;;;;;11.25;100.00;101010.06;2619100;54;20678;-62
2021/12/13 00:06:19;;;;;;;0.00;0.00;;;;;;;11.95;100.00;101021.53;2528519;54;5000603;-62
2021/12/13 00:08:57;;;;;;;1.03;1.00;;;;;;;11.65;100.00;101012.00;2619022;47;20162;-62
2021/12/13 00:11:31;;;;;;;0.00;0.00;;;;;;;12.04;100.00;101018.34;2618055;54;20161;-62
2021/12/13 00:14:09;;;;;;;0.10;0.10;;;;;;;12.35;100.00;101006.91;2617702;47;20169;-62
2021/12/13 00:16:42;;;;;;;0.40;0.40;;;;;;;12.56;100.00;101008.97;2528193;36;5000683;-63
2021/12/13 00:19:16;;;;;;;0.20;0.20;;;;;;;12.47;100.00;101013.94;2619132;54;20228;-62
2021/12/13 00:21:50;;;;;;;1.13;1.03;;;;;;;11.55;100.00;101008.28;2618548;39;20637;-63
2021/12/13 00:24:31;;;;;;;0.30;0.30;;;;;;;11.06;100.00;100999.06;2618131;54;20690;-62
2021/12/13 00:27:06;;;;;;;4.87;0.77;;;;;;;10.90;100.00;101016.44;2618150;54;20149;-62
2021/12/13 00:29:51;;;;;;;0.93;0.33;;;;;;;11.16;100.00;101024.41;2527603;54;5000606;-62
2021/12/13 00:32:25;;;;;;;0.00;0.00;;;;;;;11.60;100.00;101036.56;2619178;54;20142;-62
2021/12/13 00:34:58;;;;;;;0.10;0.10;;;;;;;11.89;100.00;101053.09;2619393;47;20159;-62
2021/12/13 00:37:34;;;;;;;0.00;0.00;;;;;;;12.46;100.00;101061.72;2619333;54;20164;-62
2021/12/13 00:40:11;;;;;;;0.00;0.00;;;;;;;12.33;100.00;101045.19;2528981;36;5000889;-63
2021/12/13 00:42:46;;;;;;;0.20;0.20;;;;;;;12.14;100.00;101035.91;2619083;54;20156;-62
2021/12/13 00:45:21;;;;;;;0.00;0.00;;;;;;;12.20;100.00;101026.88;2619519;54;20163;-62
2021/12/13 00:47:51;;;;;;;0.00;0.00;;;;;;;12.13;100.00;101023.00;2619483;54;20168;-61
2021/12/13 00:50:25;;;;;;;0.00;0.00;;;;;;;12.63;100.00;101023.28;2529192;36;5000554;-63
2021/12/13 00:52:57;;;;;;;0.00;0.00;;;;;;;12.86;100.00;101028.78;2619531;47;20238;-63
2021/12/13 00:55:33;;;;;;;0.20;0.20;;;;;;;12.54;100.00;101026.47;2619016;54;20162;-62
2021/12/13 00:58:10;;;;;;;0.00;0.00;;;;;;;12.76;100.00;101028.53;2618101;54;20678;-63
2021/12/13 01:00:46;;;;;;;3.63;0.93;;;;;;;12.93;100.00;101024.84;2617658;54;20253;-63
2021/12/13 01:03:19;;;;;;;0.40;0.40;;;;;;;13.23;100.00;101025.50;2528600;54;5001098;-62
2021/12/13 01:06:36;;;;;;;0.00;0.00;;;;;;;13.21;100.00;101019.53;2618197;54;20161;-62
2021/12/13 01:09:44;;;;;;;0.00;0.00;;;;;;;13.24;100.00;101032.38;2617742;54;20153;-63
2021/12/13 01:12:21;;;;;;;0.00;0.00;;;;;;;13.18;100.00;101017.16;2618702;36;20188;-62
2021/12/13 01:14:59;;;;;;;0.10;0.10;;;;;;;12.97;100.00;101002.88;2618261;54;20148;-63
2021/12/13 01:17:46;;;;;;;0.00;0.00;;;;;;;12.52;100.00;100993.66;2617573;54;20164;-62
2021/12/13 01:20:31;;;;;;;2.63;1.37;;;;;;;12.35;100.00;100988.69;2618732;54;20287;-62
2021/12/13 01:23:13;;;;;;;0.00;0.00;;;;;;;12.58;100.00;100994.13;2528606;36;4999980;-62
2021/12/13 01:25:48;;;;;;;0.20;0.20;;;;;;;12.82;100.00;101006.47;2618907;54;20149;-62
2021/12/13 01:28:26;;;;;;;0.43;0.43;;;;;;;12.68;100.00;101009.16;2618971;54;20168;-62
2021/12/13 01:31:00;;;;;;;0.27;0.27;;;;;;;12.67;100.00;100997.91;2618604;54;20169;-63
2021/12/13 01:33:34;;;;;;;0.10;0.10;;;;;;;12.01;100.00;101005.53;2618123;36;20760;-62
2021/12/13 01:36:08;;;;;;;0.00;0.00;;;;;;;12.38;100.00;101004.09;2617518;47;20152;-62
2021/12/13 01:38:41;;;;;;;0.00;0.00;;;;;;;11.88;100.00;100989.00;2617888;54;20161;-62
2021/12/13 01:41:18;;;;;;;0.10;0.10;;;;;;;11.40;100.00;100996.19;2617373;54;20172;-62
2021/12/13 01:43:55;;;;;;;0.63;0.63;;;;;;;11.80;100.00;100986.88;2527090;36;4999997;-63
2021/12/13 01:46:27;;;;;;;0.00;0.00;;;;;;;11.85;100.00;101002.19;2617411;51;20157;-62
2021/12/13 01:48:59;;;;;;;0.00;0.00;;;;;;;11.72;100.00;100997.75;2617535;47;20158;-63
2021/12/13 01:51:33;;;;;;;0.47;0.43;;;;;;;11.43;100.00;101002.97;2618163;54;20157;-62
2021/12/13 01:54:07;;;;;;;0.00;0.00;;;;;;;11.01;100.00;101009.72;2618760;54;20159;-62
2021/12/13 01:56:44;;;;;;;0.30;0.30;;;;;;;10.96;100.00;101016.91;2528273;54;5001490;-63
2021/12/13 01:59:43;;;;;;;0.10;0.10;;;;;;;10.99;100.00;101023.72;2618594;54;20164;-62
2021/12/13 02:02:19;;;;;;;0.77;0.77;;;;;;;10.59;100.00;101028.50;2618556;54;20729;-62
2021/12/13 02:05:02;;;;;;;1.33;1.23;;;;;;;10.28;100.00;101026.75;2617618;54;20222;-62
2021/12/13 02:07:40;;;;;;;0.30;0.30;;;;;;;10.45;100.00;101019.81;2618124;54;20161;-62
2021/12/13 02:10:16;;;;;;;0.10;0.10;;;;;;;10.72;100.00;101026.06;2618730;39;20654;-63
2021/12/13 02:12:55;;;;;;;0.00;0.00;;;;;;;11.02;100.00;101037.34;2618522;54;20159;-63
2021/12/13 02:18:15;;;;;;;0.53;0.53;;;;;;;11.44;100.00;101039.25;2529197;54;5001798;-61
2021/12/13 02:20:50;;;;;;;0.00;0.00;;;;;;;11.48;100.00;101032.09;2619720;39;20602;-62
2021/12/13 02:23:24;;;;;;;0.63;0.63;;;;;;;11.12;100.00;101035.91;2619142;54;20138;-62
2021/12/13 02:25:57;;;;;;;0.00;0.00;;;;;;;10.84;100.00;101022.81;2618345;54;20160;-62
2021/12/13 02:28:32;;;;;;;0.07;0.07;;;;;;;10.92;100.00;101017.19;2528145;36;5000360;-61
2021/12/13 02:31:07;;;;;;;0.00;0.00;;;;;;;11.38;100.00;101018.00;2619075;54;20137;-61
2021/12/13 02:33:40;;;;;;;0.23;0.23;;;;;;;10.76;100.00;101030.19;2619324;54;20158;-61
2021/12/13 02:36:15;;;;;;;0.00;0.00;;;;;;;11.33;100.00;101044.22;2619517;39;20562;-61
2021/12/13 02:38:50;;;;;;;0.00;0.00;;;;;;;11.19;100.00;101060.59;2528203;36;5000544;-61
2021/12/13 02:41:23;;;;;;;0.10;0.10;;;;;;;11.51;100.00;101057.94;2618046;54;20161;-62
2021/12/13 02:43:57;;;;;;;0.00;0.00;;;;;;;12.60;100.00;101059.06;2619388;54;20167;-61
2021/12/13 02:46:28;;;;;;;0.00;0.00;;;;;;;13.32;100.00;101058.75;2618994;47;20670;-61
2021/12/13 02:49:03;;;;;;;0.00;0.00;;;;;;;13.54;100.00;101061.63;2529932;39;5000133;-61
2021/12/13 02:51:36;;;;;;;0.00;0.00;;;;;;;13.79;100.00;101068.66;2619699;54;20159;-62
2021/12/13 02:54:13;;;;;;;0.00;0.00;;;;;;;13.66;100.00;101069.56;2619590;46;20696;-61
2021/12/13 02:56:47;;;;;;;0.47;0.47;;;;;;;13.05;100.00;101063.97;2619455;54;20156;-61
2021/12/13 02:59:20;;;;;;;0.00;0.00;;;;;;;12.44;100.00;101046.19;2619607;54;20149;-62
2021/12/13 03:01:55;;;;;;;0.00;0.00;;;;;;;12.86;100.00;101054.84;2528346;54;5000199;-62
2021/12/13 03:04:28;;;;;;;0.03;0.03;;;;;;;12.99;100.00;101066.16;2617878;54;20160;-62
2021/12/13 03:07:04;;;;;;;0.00;0.00;;;;;;;12.93;100.00;101071.72;2618439;39;20558;-63
2021/12/13 03:09:39;;;;;;;0.00;0.00;;;;;;;13.37;100.00;101072.31;2617938;54;20153;-63
2021/12/13 03:12:12;;;;;;;0.00;0.00;;;;;;;12.98;100.00;101069.69;2618840;54;20189;-62
2021/12/13 03:14:46;;;;;;;0.07;0.07;;;;;;;12.24;100.00;101067.38;2619297;47;20164;-62
2021/12/13 03:17:22;;;;;;;0.00;0.00;;;;;;;12.46;100.00;101061.72;2619058;39;20677;-61
2021/12/13 03:20:04;;;;;;;0.00;0.00;;;;;;;12.56;100.00;101048.03;2618991;47;20724;-62
2021/12/13 03:23:04;;;;;;;0.10;0.10;;;;;;;12.25;100.00;101048.25;2528019;36;5000702;-63
2021/12/13 03:26:11;;;;;;;0.00;0.00;;;;;;;12.03;100.00;101042.69;2617551;54;20667;-62
2021/12/13 03:28:58;;;;;;;0.20;0.20;;;;;;;11.87;100.00;101031.56;2619217;31;20774;-62
2021/12/13 03:31:36;;;;;;;0.67;0.67;;;;;;;11.17;100.00;101014.88;2617911;54;20149;-63
2021/12/13 03:34:10;;;;;;;0.73;0.47;;;;;;;10.66;100.00;101022.09;2619090;36;20188;-63
2021/12/13 03:36:52;;;;;;;1.13;0.60;;;;;;;10.24;100.00;101027.00;2619183;54;20169;-62
2021/12/13 03:39:25;;;;;;;0.93;0.43;;;;;;;10.37;100.00;101055.69;2618244;54;20168;-62
2021/12/13 03:42:01;;;;;;;0.53;0.53;;;;;;;10.15;100.00;101071.56;2618712;54;20149;-62
2021/12/13 03:44:36;;;;;;;0.00;0.00;;;;;;;11.40;100.00;101070.69;2529081;36;5000611;-62
2021/12/13 03:47:12;;;;;;;0.03;0.03;;;;;;;12.14;100.00;101072.34;2619073;54;20155;-62
2021/12/13 03:49:49;;;;;;;0.00;0.00;;;;;;;12.37;100.00;101076.13;2619359;54;20142;-62
2021/12/13 03:52:22;;;;;;;0.00;0.00;;;;;;;12.30;100.00;101074.84;2618178;47;20157;-63
2021/12/13 03:54:55;;;;;;;0.50;0.10;;;;;;;11.82;100.00;101085.59;2528068;36;5000687;-62
2021/12/13 03:57:28;;;;;;;0.00;0.00;;;;;;;13.01;100.00;101085.09;2619150;47;20164;-62
2021/12/13 04:00:02;;;;;;;0.00;0.00;;;;;;;13.10;100.00;101085.38;2618815;54;20157;-62
2021/12/13 04:02:36;;;;;;;0.00;0.00;;;;;;;12.60;100.00;101083.34;2618587;54;20201;-62
2021/12/13 04:05:11;;;;;;;0.00;0.00;;;;;;;12.80;100.00;101083.88;2527991;54;5000504;-62
2021/12/13 04:07:44;;;;;;;0.00;0.00;;;;;;;13.01;100.00;101085.94;2617788;54;20206;-63
2021/12/13 04:10:19;;;;;;;0.00;0.00;;;;;;;13.15;100.00;101103.34;2617865;54;20153;-63
2021/12/13 04:12:54;;;;;;;0.00;0.00;;;;;;;13.23;100.00;101090.66;2617685;54;20157;-63
2021/12/13 04:15:31;;;;;;;0.00;0.00;;;;;;;13.26;100.00;101100.03;2618670;54;20163;-62
2021/12/13 04:18:14;;;;;;;0.00;0.00;;;;;;;13.58;100.00;101094.38;2528855;47;5000336;-62
2021/12/13 04:20:46;;;;;;;0.00;0.00;;;;;;;13.40;100.00;101092.16;2618298;54;20153;-62
2021/12/13 04:23:23;;;;;;;0.00;0.00;;;;;;;13.43;100.00;101084.97;2619456;47;20168;-62
2021/12/13 04:25:54;;;;;;;0.30;0.30;;;;;;;12.61;100.00;101082.41;2619146;54;20153;-62
2021/12/13 04:28:29;;;;;;;0.00;0.00;;;;;;;12.99;100.00;101068.75;2528780;54;5000702;-63
2021/12/13 04:31:03;;;;;;;0.00;0.00;;;;;;;13.17;100.00;101059.75;2619341;39;20583;-63
2021/12/13 04:33:37;;;;;;;2.00;1.90;;;;;;;13.11;100.00;101052.38;2618398;54;20153;-63
2021/12/13 04:36:10;;;;;;;0.00;0.00;;;;;;;13.00;100.00;101058.22;2618548;54;20163;-63
2021/12/13 04:38:50;;;;;;;0.30;0.20;;;;;;;13.01;100.00;101057.28;2528375;54;5000652;-63
2021/12/13 04:41:29;;;;;;;0.00;0.00;;;;;;;12.44;100.00;101072.22;2619438;54;20180;-63
2021/12/13 04:44:06;;;;;;;0.30;0.30;;;;;;;12.92;100.00;101072.69;2619147;54;20152;-62
2021/12/13 04:46:39;;;;;;;0.00;0.00;;;;;;;12.85;100.00;101079.19;2618640;54;20172;-63
2021/12/13 04:49:14;;;;;;;0.40;0.40;;;;;;;11.72;100.00;101078.31;2618408;47;20149;-63
2021/12/13 04:51:48;;;;;;;0.00;0.00;;;;;;;11.44;100.00;101093.81;2529443;54;5001780;-62
2021/12/13 04:54:19;;;;;;;0.20;0.20;;;;;;;11.53;100.00;101090.69;2618668;54;20149;-63
2021/12/13 04:56:51;;;;;;;0.00;0.00;;;;;;;12.68;100.00;101091.50;2618378;54;20294;-63
2021/12/13 04:59:26;;;;;;;0.00;0.00;;;;;;;13.08;100.00;101095.03;2618385;54;20154;-63
2021/12/13 05:02:00;;;;;;;0.10;0.10;;;;;;;12.68;100.00;101104.53;2527582;54;5000390;-64
2021/12/13 05:04:32;;;;;;;0.20;0.20;;;;;;;12.57;100.00;101106.97;2618287;54;20156;-64
2021/12/13 05:07:06;;;;;;;0.10;0.10;;;;;;;12.82;100.00;101095.88;2617946;54;20160;-63
2021/12/13 05:09:37;;;;;;;0.00;0.00;;;;;;;12.83;100.00;101091.50;2618459;54;20156;-62
2021/12/13 05:12:13;;;;;;;0.00;0.00;;;;;;;12.51;100.00;101099.56;2618629;47;20284;-62
2021/12/13 05:14:50;;;;;;;0.00;0.00;;;;;;;12.92;100.00;101090.91;2618140;49;20159;-63
2021/12/13 05:17:23;;;;;;;0.43;0.43;;;;;;;12.56;100.00;101087.06;2618782;54;20156;-61
2021/12/13 05:19:56;;;;;;;0.20;0.20;;;;;;;11.31;100.00;101089.41;2618542;54;20157;-62
2021/12/13 05:22:27;;;;;;;0.07;0.07;;;;;;;12.51;100.00;101102.16;2527595;36;5000570;-62
2021/12/13 05:25:07;;;;;;;0.00;0.00;;;;;;;12.46;100.00;101112.00;2617681;54;20158;-63
2021/12/13 05:27:40;;;;;;;0.10;0.10;;;;;;;12.82;100.00;101101.06;2617958;54;20153;-63
2021/12/13 05:30:18;;;;;;;0.50;0.50;;;;;;;11.98;100.00;101097.59;2618253;54;20157;-62
2021/12/13 05:32:52;;;;;;;0.20;0.20;;;;;;;12.40;100.00;101098.50;2618434;54;20164;-64
2021/12/13 05:35:25;;;;;;;0.00;0.00;;;;;;;13.06;100.00;101114.31;2528186;54;5000169;-62
2021/12/13 05:37:58;;;;;;;0.00;0.00;;;;;;;12.94;100.00;101125.50;2617852;54;20170;-63
2021/12/13 05:40:36;;;;;;;0.00;0.00;;;;;;;13.38;100.00;101123.53;2619111;39;20652;-63
2021/12/13 05:43:18;;;;;;;0.00;0.00;;;;;;;12.85;100.00;101120.84;2620081;54;20692;-64
2021/12/13 05:45:55;;;;;;;0.10;0.10;;;;;;;12.27;100.00;101131.44;2527942;36;5000358;-64
2021/12/13 05:48:38;;;;;;;0.03;0.03;;;;;;;12.49;100.00;101126.59;2617811;47;20157;-64
2021/12/13 05:51:19;;;;;;;0.30;0.30;;;;;;;12.50;100.00;101121.28;2620203;31;20673;-64
2021/12/13 05:53:57;;;;;;;0.00;0.00;;;;;;;13.10;100.00;101108.84;2618963;54;20165;-62
2021/12/13 05:56:35;;;;;;;0.00;0.00;;;;;;;13.22;100.00;101125.44;2529015;36;5000379;-63
2021/12/13 05:59:22;;;;;;;0.30;0.30;;;;;;;12.95;100.00;101128.03;2619023;47;20153;-64
2021/12/13 06:02:13;;;;;;;0.20;0.20;;;;;;;12.25;100.00;101125.47;2618614;54;20288;-63
2021/12/13 06:04:48;;;;;;;0.53;0.53;;;;;;;11.79;100.00;101133.41;2619126;54;20659;-63
2021/12/13 06:07:22;;;;;;;0.87;0.23;;;;;;;12.33;100.00;101134.47;2528318;36;5000327;-62
2021/12/13 06:10:00;;;;;;;0.30;0.30;;;;;;;12.30;100.00;101131.22;2619806;46;20440;-63
2021/12/13 06:12:43;;;;;;;0.00;0.00;;;;;;;12.33;100.00;101137.09;2619474;54;20256;-62
2021/12/13 06:15:27;;;;;;;0.00;0.00;;;;;;;12.03;100.00;101137.16;2618687;54;20662;-64
2021/12/13 06:18:21;;;;;;;0.20;0.20;;;;;;;11.87;100.00;101136.41;2529766;36;5000694;-63
2021/12/13 06:20:58;;;;;;;1.03;0.73;;;;;;;11.86;100.00;101126.06;2619388;54;20248;-61
2021/12/13 06:23:31;;;;;;;0.47;0.47;;;;;;;12.12;100.00;101143.56;2618862;54;20170;-63
2021/12/13 06:26:03;;;;;;;0.00;0.00;;;;;;;12.04;100.00;101148.38;2618751;54;20141;-63
2021/12/13 06:28:36;;;;;;;0.63;0.57;;;;;;;11.45;100.00;101144.84;2527590;54;5000703;-62
2021/12/13 06:31:10;;;;;;;0.30;0.30;;;;;;;11.03;100.00;101152.44;2618089;54;20163;-64
2021/12/13 06:33:52;;;;;;;0.00;0.00;;;;;;;11.06;100.00;101152.28;2618051;54;20160;-64
2021/12/13 06:36:29;;;;;;;0.00;0.00;;;;;;;12.68;100.00;101169.59;2667628;36;41865;-61
2021/12/13 06:39:07;;;;;;;0.33;0.33;;;;;;;12.74;100.00;101162.34;2582599;39;5001278;-62
2021/12/13 06:41:44;;;;;;;0.40;0.40;;;;;;;11.56;100.00;101168.47;2663852;36;20201;-64
2021/12/13 06:44:24;;;;;;;0.33;0.20;;;;;;;11.16;100.00;101150.81;2619534;39;20543;-63
2021/12/13 06:47:01;;;;;;;0.93;0.93;;;;;;;10.85;100.00;101158.63;2618090;54;20157;-64
2021/12/13 06:49:37;;;;;;;0.53;0.53;;;;;;;11.44;100.00;101179.53;2618013;54;20248;-65
2021/12/13 06:52:11;;;;;;;0.33;0.33;;;;;;;12.08;100.00;101186.28;2527744;54;5000301;-62
2021/12/13 06:54:44;;;;;;;0.73;0.73;;;;;;;12.76;100.00;101191.75;2730403;36;20219;-63
2021/12/13 06:57:17;;;;;;;0.63;0.57;;;;;;;11.76;100.00;101195.09;2618241;54;20150;-66
2021/12/13 06:59:53;;;;;;;0.40;0.40;;;;;;;10.88;100.00;101195.63;2618385;54;20146;-63
2021/12/13 07:02:26;;;;;;;0.10;0.10;;;;;;;10.34;100.00;101199.38;2528545;54;5000441;-63
2021/12/13 07:05:06;;;;;;;2.43;0.60;;;;;;;10.19;100.00;101184.59;2678947;36;20617;-63
2021/12/13 07:07:41;;;;;;;0.63;0.60;;;;;;;10.23;100.00;101180.94;2619388;54;20149;-65
2021/12/13 07:10:18;;;;;;;0.20;0.20;;;;;;;9.65;100.00;101183.78;2620040;31;20659;-63
2021/12/13 07:12:52;;;;;;;1.03;1.03;;;;;;;8.64;100.00;101191.09;2621105;36;5000553;-64
2021/12/13 07:15:36;;;;;;;0.20;0.20;;;;;;;9.12;100.00;101193.22;2618885;46;20161;-64
2021/12/13 07:18:12;;;;;;;3.20;1.07;;;;;;;9.98;100.00;101196.00;2618165;54;20164;-63
2021/12/13 07:20:48;;;;;;;0.67;0.47;;;;;;;10.17;100.00;101199.38;2618167;46;20165;-64
2021/12/13 07:23:19;;;;;;;0.43;0.43;;;;;;;10.39;100.00;101186.16;2617952;47;20718;-65
2021/12/13 07:25:52;;;;;;;1.73;1.60;;;;;;;10.48;100.00;101196.88;2618902;54;20168;-64
2021/12/13 07:28:35;;;;;;;0.30;0.30;;;;;;;11.60;100.00;101208.09;2619607;39;20643;-64
2021/12/13 07:31:10;;;;;;;0.10;0.10;;;;;;;11.28;100.00;101226.31;2619015;54;20292;-64
2021/12/13 07:33:43;;;;;;;0.47;0.47;;;;;;;10.41;100.00;101225.81;2528534;36;5000701;-62
2021/12/13 07:36:21;;;;;;;2.47;0.33;;;;;;;9.53;100.00;101225.81;2619196;39;20569;-62
2021/12/13 07:38:56;;;;;;;3.50;1.37;;;;;;;9.12;100.00;101224.28;2618535;39;20550;-63
2021/12/13 07:41:28;;;;;;;4.03;0.83;;;;;;;8.32;100.00;101223.53;2618842;54;20209;-61
2021/12/13 07:43:58;;;;;;;4.97;1.97;;;;;;;7.99;100.00;101217.97;2664800;36;20205;-62
2021/12/13 07:46:32;;;;;;;0.37;0.37;;;;;;;8.30;100.00;101220.19;2527985;46;5000153;-65
2021/12/13 07:49:10;;;;;;;0.00;0.00;;;;;;;9.39;100.00;101212.66;2618690;54;20294;-62
2021/12/13 07:51:50;;;;;;;1.47;1.20;;;;;;;9.74;100.00;101209.25;2618820;54;20153;-63
2021/12/13 07:54:21;;;;;;;0.73;0.63;;;;;;;10.06;100.00;101224.97;2617790;54;20176;-62
2021/12/13 07:56:56;;;;;;;0.20;0.20;;;;;;;10.41;100.00;101234.44;2529130;36;4999920;-63
2021/12/13 07:59:31;;;;;;;0.10;0.10;;;;;;;10.29;100.00;101237.66;2618419;54;20250;-63
2021/12/13 08:02:05;;;;;;;3.17;1.53;;;;;;;9.23;100.00;101242.75;2616557;54;20225;-64
2021/12/13 08:04:47;;;;;;;0.50;0.50;;;;;;;8.40;100.00;101239.56;2616273;54;20149;-63
2021/12/13 08:07:22;;;;;;;2.37;1.40;;;;;;;8.50;100.00;101247.78;2527357;54;5000434;-63
2021/12/13 08:09:57;;;;;;;1.50;0.40;;;;;;;7.89;100.00;101245.13;2617591;47;20157;-64
2021/12/13 08:12:31;;;;;;;0.00;0.00;;;;;;;8.17;100.00;101248.25;2618406;31;20587;-62
2021/12/13 08:15:14;;;;;;;0.30;0.30;;;;;;;8.79;100.00;101262.84;2617831;54;20172;-62
2021/12/13 08:17:48;;;;;;;0.63;0.63;;;;;;;8.66;100.00;101262.59;2526743;54;5000263;-63
2021/12/13 08:20:24;;;;;;;2.27;2.00;;;;;;;8.34;100.00;101265.69;2663981;36;20287;-64
2021/12/13 08:22:58;;;;;;;1.50;0.37;;;;;;;8.22;100.00;101261.84;2618445;54;20157;-63
2021/12/13 08:25:33;;;;;;;1.27;1.13;;;;;;;8.51;100.00;101264.94;2617465;54;20171;-61
2021/12/13 08:28:07;;;;;;;0.97;0.70;;;;;;;8.50;100.00;101271.91;2617352;54;20153;-64
2021/12/13 08:30:50;;;;;;;0.50;0.50;;;;;;;8.24;100.00;101269.50;2527781;36;5000733;-63
2021/12/13 08:33:25;;;;;;;2.40;1.27;;;;;;;7.41;100.00;101271.09;2616180;54;20157;-63
2021/12/13 08:36:01;;;;;;;1.80;1.50;;;;;;;7.39;100.00;101273.75;2613519;54;20172;-64
2021/12/13 08:38:47;;;;;;;0.77;0.77;;;;;;;7.32;100.00;101274.03;2672415;36;20242;-63
2021/12/13 08:41:28;;;;;;;1.40;1.33;;;;;;;7.34;100.00;101277.41;2527116;36;5000678;-63
2021/12/13 08:44:04;;;;;;;3.40;0.97;;;;;;;7.32;100.00;101280.03;2617514;54;20155;-64
2021/12/13 08:46:44;;;;;;;1.20;1.00;;;;;;;7.67;100.00;101263.19;2712155;36;20335;-62
2021/12/13 08:49:30;;;;;;;1.07;1.07;;;;;;;7.49;100.00;101261.34;2618027;54;20157;-65
2021/12/13 08:52:08;;;;;;;0.20;0.20;;;;;;;7.76;100.00;101262.00;2529239;52;5000354;-63
2021/12/13 08:54:46;;;;;;;0.40;0.40;;;;;;;7.69;100.00;101268.31;2618278;54;20274;-64
2021/12/13 08:57:35;;;;;;;0.63;0.30;;;;;;;9.58;100.00;101272.22;2617848;47;20149;-62
2021/12/13 09:00:19;;;;;;;0.27;0.27;;;;;;;9.11;100.00;101279.56;2617439;54;20164;-64
2021/12/13 09:02:59;;;;;;;2.07;0.97;;;;;;;8.68;100.00;101278.84;2617251;47;20775;-63
2021/12/13 09:05:32;;;;;;;1.87;1.40;;;;;;;9.18;100.00;101270.63;2617809;54;20202;-63
2021/12/13 09:08:07;;;;;;;0.10;0.10;;;;;;;9.95;100.00;101254.00;2663564;36;20208;-63
2021/12/13 09:10:53;;;;;;;0.30;0.30;;;;;;;9.74;100.00;101260.22;2618564;54;20153;-63
2021/12/13 09:13:40;;;;;;;1.03;0.93;;;;;;;9.20;100.00;101263.63;2527212;51;5000554;-63
2021/12/13 09:16:13;;;;;;;0.20;0.20;;;;;;;9.76;100.00;101267.00;2618963;54;20153;-62
2021/12/13 09:18:43;;;;;;;4.37;1.43;;;;;;;10.22;100.00;101259.63;2618937;54;20788;-63
2021/12/13 09:21:20;;;;;;;0.00;0.00;;;;;;;10.77;100.00;101261.09;2617898;47;20178;-61
2021/12/13 09:23:54;;;;;;;0.30;0.30;;;;;;;11.43;100.00;101260.19;2527187;47;5000425;-63
2021/12/13 09:26:28;;;;;;;0.83;0.23;;;;;;;12.12;100.00;101258.00;2617955;39;20608;-63
2021/12/13 09:29:02;;;;;;;0.30;0.30;;;;;;;11.52;100.00;101259.66;2618504;54;20149;-62
2021/12/13 09:31:36;;;;;;;0.83;0.83;;;;;;;11.15;100.00;101263.44;2617390;54;20150;-63
2021/12/13 09:34:13;;;;;;;0.36;0.36;;;;;;;10.87;100.00;101250.25;2553846;54;5001199;-62
2021/12/13 09:36:46;;;;;;;0.50;0.50;;;;;;;11.01;100.00;101263.31;2664722;36;21352;-63
2021/12/13 09:39:19;;;;;;;0.10;0.10;;;;;;;11.52;100.00;101260.50;2616990;54;20157;-63
2021/12/13 09:41:57;;;;;;;0.00;0.00;;;;;;;11.44;100.00;101252.28;2617496;54;20145;-63
2021/12/13 09:44:33;;;;;;;0.00;0.00;;;;;;;11.63;100.00;101247.78;2617947;54;20236;-63
2021/12/13 09:47:09;;;;;;;0.10;0.10;;;;;;;12.00;100.00;101251.75;2527256;36;5000192;-63
2021/12/13 09:49:43;;;;;;;0.63;0.63;;;;;;;10.67;100.00;101243.50;2618076;54;20184;-64
2021/12/13 09:52:17;;;;;;;2.33;0.73;;;;;;;10.45;100.00;101243.75;2618045;54;20155;-64
2021/12/13 09:54:52;;;;;;;6.70;2.70;;;;;;;10.56;100.00;101246.63;2618614;47;20284;-64
2021/12/13 09:57:29;;;;;;;0.30;0.30;;;;;;;10.78;100.00;101249.81;2528166;36;5000559;-63
2021/12/13 10:00:11;;;;;;;0.57;0.43;;;;;;;10.83;100.00;101248.72;2617193;54;20153;-63
2021/12/13 10:02:44;;;;;;;0.23;0.17;;;;;;;9.47;100.00;101251.97;2616908;54;20764;-62
2021/12/13 10:05:19;;;;;;;0.50;0.50;;;;;;;9.21;100.00;101258.38;2616980;54;20682;-63
2021/12/13 10:07:54;;;;;;;0.03;0.03;;;;;;;9.04;100.00;101263.47;2527382;54;5000506;-63
2021/12/13 10:10:33;;;;;;;0.67;0.67;;;;;;;9.25;100.00;101253.91;2618152;54;20543;-64
2021/12/13 10:13:09;;;;;;;0.20;0.20;;;;;;;9.20;100.00;101253.25;2619389;54;20687;-63
2021/12/13 10:15:42;;;;;;;0.60;0.20;;;;;;;8.48;100.00;101242.66;2618464;39;20563;-63
2021/12/13 10:18:20;;;;;;;0.87;0.87;;;;;;;8.12;100.00;101255.34;2619084;54;20164;-64
2021/12/13 10:20:54;;;;;;;0.50;0.50;;;;;;;8.36;100.00;101251.78;2528534;54;5000879;-63
2021/12/13 10:23:28;;;;;;;0.40;0.40;;;;;;;8.15;100.00;101238.88;2617373;54;20182;-64
2021/12/13 10:26:20;;;;;;;3.07;2.13;;;;;;;7.99;100.00;101241.25;2614731;54;20169;-62
2021/12/13 10:28:58;;;;;;;1.03;0.70;;;;;;;8.04;100.00;101236.72;2619060;47;20214;-63
2021/12/13 10:31:34;;;;;;;1.90;0.40;;;;;;;8.26;100.00;101237.53;2528875;54;5000226;-64
2021/12/13 10:34:09;;;;;;;1.27;0.60;;;;;;;8.75;100.00;101249.22;2618382;54;20205;-63
2021/12/13 10:36:51;;;;;;;2.30;2.03;;;;;;;8.06;100.00;101240.09;2619017;54;20149;-64
2021/12/13 10:39:27;;;;;;;0.20;0.20;;;;;;;8.21;100.00;101241.22;2619284;54;20156;-63
2021/12/13 10:42:07;;;;;;;5.23;1.53;;;;;;;7.85;100.00;101241.81;2528567;54;5001002;-63
2021/12/13 10:44:44;;;;;;;0.97;0.73;;;;;;;8.30;100.00;101248.63;2619081;47;20163;-64
2021/12/13 10:47:20;;;;;;;0.90;0.83;;;;;;;9.08;100.00;101249.47;2618198;54;20241;-62
2021/12/13 10:49:53;;;;;;;0.40;0.40;;;;;;;9.87;100.00;101243.16;2619632;54;20160;-61
2021/12/13 10:52:27;;;;;;;1.63;0.70;;;;;;;8.78;100.00;101254.28;2529020;54;5000825;-62
2021/12/13 10:55:01;;;;;;;0.80;0.80;;;;;;;8.23;100.00;101249.72;2619213;39;20654;-63
2021/12/13 10:57:36;;;;;;;0.30;0.30;;;;;;;8.46;100.00;101254.84;2618600;54;20171;-62
2021/12/13 11:00:12;;;;;;;1.47;1.30;;;;;;;7.73;100.00;101250.06;2619401;39;20579;-62
2021/12/13 11:02:43;;;;;;;3.20;1.60;;;;;;;7.70;100.00;101250.19;2619525;54;20204;-63
2021/12/13 11:05:16;;;;;;;0.57;0.57;;;;;;;7.62;100.00;101249.63;2528859;54;5000436;-65
2021/12/13 11:07:48;;;;;;;0.67;0.67;;;;;;;7.43;100.00;101259.81;2618188;54;20167;-64
2021/12/13 11:10:21;;;;;;;2.50;0.90;;;;;;;7.19;100.00;101254.72;2619159;47;20172;-64
2021/12/13 11:13:00;;;;;;;0.90;0.70;;;;;;;7.32;100.00;101249.06;2618572;54;20188;-64
2021/12/13 11:15:40;;;;;;;0.73;0.73;;;;;;;7.24;100.00;101252.81;2528219;36;5000695;-64
2021/12/13 11:18:14;;;;;;;0.07;0.07;;;;;;;7.67;100.00;101246.84;2618099;54;20618;-64
2021/12/13 11:20:48;;;;;;;1.07;1.07;;;;;;;7.94;100.00;101243.19;2618068;47;20186;-64
2021/12/13 11:23:21;;;;;;;0.13;0.13;;;;;;;8.87;100.00;101240.91;2617922;54;20690;-64
2021/12/13 11:25:55;;;;;;;0.10;0.10;;;;;;;8.44;100.00;101238.53;2529301;54;5001012;-62
2021/12/13 11:28:29;;;;;;;2.77;1.40;;;;;;;8.32;100.00;101237.31;2618724;54;20172;-64
2021/12/13 11:31:10;;;;;;;2.27;1.33;;;;;;;8.61;100.00;101235.22;2617502;54;20149;-63
2021/12/13 11:34:34;;;;;;;0.57;0.37;;;;;;;8.52;100.00;101223.53;2616584;54;20156;-63
2021/12/13 11:37:46;;;;;;;0.60;0.33;;;;;;;8.05;100.00;101237.56;2527101;36;5000310;-63
2021/12/13 11:40:39;;;;;;;1.10;0.67;;;;;;;8.62;100.00;101235.16;2616838;47;20157;-63
2021/12/13 11:43:36;;;;;;;0.40;0.40;;;;;;;8.86;100.00;101231.50;2618653;54;20150;-63
2021/12/13 11:46:47;;;;;;;1.80;0.80;;;;;;;7.76;100.00;101244.75;2618346;54;20149;-64
2021/12/13 11:49:38;;;;;;;0.07;0.07;;;;;;;7.76;100.00;101241.34;2526812;54;5001886;-63
2021/12/13 11:52:39;;;;;;;0.37;0.37;;;;;;;7.78;100.00;101232.59;2618180;54;20157;-62
2021/12/13 11:55:42;;;;;;;0.37;0.37;;;;;;;7.96;100.00;101244.81;2617708;54;20158;-64
2021/12/13 11:58:34;;;;;;;0.00;0.00;;;;;;;8.16;100.00;101235.38;2527981;36;5000436;-63
2021/12/13 12:01:46;;;;;;;0.50;0.50;;;;;;;9.12;100.00;101232.91;2618513;54;20173;-63
2021/12/13 12:05:04;;;;;;;1.90;0.60;;;;;;;8.30;100.00;101240.88;2617034;54;20145;-62
2021/12/13 12:07:58;;;;;;;1.53;1.37;;;;;;;8.48;100.00;101221.97;2618979;54;20177;-63